sensor_id;sensor_type;location;lat;lon;timestamp;P1;durP1;ratioP1;P2;durP2;ratioP2
39778;SDS011;25454;49.878;8.618;2023-04-15T00:01:18;5.97;;;4.00;;
39778;SDS011;25454;49.878;8.618;2023-04-15T00:06:20;7.13;;;3.67;;
39778;SDS011;25454;49.878;8.618;2023-04-15T00:11:21;8.57;;;3.77;;
39778;SDS011;25454;49.878;8.618;2023-04-15T00:16:23;7.03;;;3.37;;
39778;SDS011;25454;49.878;8.618;2023-04-15T00:21:24;6.27;;;3.40;;
39778;SDS011;25454;49.878;8.618;2023-04-15T00:26:25;5.63;;;3.27;;
39778;SDS011;25454;49.878;8.618;2023-04-15T00:31:26;7.37;;;4.07;;
39778;SDS011;25454;49.878;8.618;2023-04-15T00:36:27;6.87;;;3.70;;
39778;SDS011;25454;49.878;8.618;2023-04-15T00:41:28;9.87;;;3.63;;
39778;SDS011;25454;49.878;8.618;2023-04-15T00:46:29;4.67;;;3.30;;
39778;SDS011;25454;49.878;8.618;2023-04-15T00:51:30;7.50;;;3.60;;
39778;SDS011;25454;49.878;8.618;2023-04-15T00:56:35;5.57;;;3.50;;
39778;SDS011;25454;49.878;8.618;2023-04-15T01:01:37;6.40;;;3.60;;
39778;SDS011;25454;49.878;8.618;2023-04-15T01:06:38;6.13;;;3.57;;
39778;SDS011;25454;49.878;8.618;2023-04-15T01:11:41;4.47;;;3.13;;
39778;SDS011;25454;49.878;8.618;2023-04-15T01:16:43;5.13;;;3.27;;
39778;SDS011;25454;49.878;8.618;2023-04-15T01:21:44;7.37;;;3.10;;
39778;SDS011;25454;49.878;8.618;2023-04-15T01:26:45;9.83;;;3.80;;
39778;SDS011;25454;49.878;8.618;2023-04-15T01:31:51;5.90;;;3.67;;
39778;SDS011;25454;49.878;8.618;2023-04-15T01:36:53;8.47;;;3.80;;
39778;SDS011;25454;49.878;8.618;2023-04-15T01:41:54;6.53;;;3.10;;
39778;SDS011;25454;49.878;8.618;2023-04-15T01:46:56;6.90;;;3.53;;
39778;SDS011;25454;49.878;8.618;2023-04-15T01:51:57;6.03;;;3.57;;
39778;SDS011;25454;49.878;8.618;2023-04-15T01:56:57;7.47;;;3.50;;
39778;SDS011;25454;49.878;8.618;2023-04-15T02:01:58;7.37;;;3.87;;
39778;SDS011;25454;49.878;8.618;2023-04-15T02:06:59;5.83;;;3.33;;
39778;SDS011;25454;49.878;8.618;2023-04-15T02:12:00;7.90;;;3.57;;
39778;SDS011;25454;49.878;8.618;2023-04-15T02:17:00;7.80;;;3.60;;
39778;SDS011;25454;49.878;8.618;2023-04-15T02:22:06;5.77;;;3.40;;
39778;SDS011;25454;49.878;8.618;2023-04-15T02:27:08;9.33;;;4.80;;
39778;SDS011;25454;49.878;8.618;2023-04-15T02:32:08;10.57;;;4.10;;
39778;SDS011;25454;49.878;8.618;2023-04-15T02:37:11;7.17;;;3.97;;
39778;SDS011;25454;49.878;8.618;2023-04-15T02:42:12;5.07;;;3.47;;
39778;SDS011;25454;49.878;8.618;2023-04-15T02:47:12;8.23;;;3.40;;
39778;SDS011;25454;49.878;8.618;2023-04-15T02:52:14;5.17;;;3.50;;
39778;SDS011;25454;49.878;8.618;2023-04-15T02:57:15;4.57;;;3.30;;
39778;SDS011;25454;49.878;8.618;2023-04-15T03:02:16;6.47;;;3.33;;
39778;SDS011;25454;49.878;8.618;2023-04-15T03:07:17;5.80;;;3.30;;
39778;SDS011;25454;49.878;8.618;2023-04-15T03:12:18;9.63;;;3.30;;
39778;SDS011;25454;49.878;8.618;2023-04-15T03:17:19;8.03;;;4.20;;
39778;SDS011;25454;49.878;8.618;2023-04-15T03:22:20;6.37;;;3.73;;
39778;SDS011;25454;49.878;8.618;2023-04-15T03:27:20;8.07;;;4.10;;
39778;SDS011;25454;49.878;8.618;2023-04-15T03:32:21;7.50;;;3.90;;
39778;SDS011;25454;49.878;8.618;2023-04-15T03:37:21;6.70;;;3.57;;
39778;SDS011;25454;49.878;8.618;2023-04-15T03:42:22;5.33;;;3.70;;
39778;SDS011;25454;49.878;8.618;2023-04-15T03:47:22;6.23;;;3.87;;
39778;SDS011;25454;49.878;8.618;2023-04-15T03:52:23;5.33;;;3.43;;
39778;SDS011;25454;49.878;8.618;2023-04-15T03:57:26;7.47;;;4.67;;
39778;SDS011;25454;49.878;8.618;2023-04-15T04:02:27;8.37;;;4.60;;
39778;SDS011;25454;49.878;8.618;2023-04-15T04:07:28;4.60;;;3.87;;
39778;SDS011;25454;49.878;8.618;2023-04-15T04:12:28;6.93;;;3.90;;
39778;SDS011;25454;49.878;8.618;2023-04-15T04:17:29;5.80;;;3.90;;
39778;SDS011;25454;49.878;8.618;2023-04-15T04:22:30;5.90;;;3.67;;
39778;SDS011;25454;49.878;8.618;2023-04-15T04:27:30;7.30;;;4.40;;
39778;SDS011;25454;49.878;8.618;2023-04-15T04:32:31;10.07;;;3.93;;
39778;SDS011;25454;49.878;8.618;2023-04-15T04:37:32;6.47;;;4.27;;
39778;SDS011;25454;49.878;8.618;2023-04-15T04:42:32;8.90;;;4.20;;
39778;SDS011;25454;49.878;8.618;2023-04-15T04:47:33;8.97;;;4.63;;
39778;SDS011;25454;49.878;8.618;2023-04-15T04:52:33;6.77;;;4.27;;
39778;SDS011;25454;49.878;8.618;2023-04-15T04:57:34;7.43;;;4.17;;
39778;SDS011;25454;49.878;8.618;2023-04-15T05:02:44;8.27;;;4.43;;
39778;SDS011;25454;49.878;8.618;2023-04-15T05:07:48;5.83;;;4.10;;
39778;SDS011;25454;49.878;8.618;2023-04-15T05:12:49;5.10;;;3.80;;
39778;SDS011;25454;49.878;8.618;2023-04-15T05:17:50;5.47;;;3.63;;
39778;SDS011;25454;49.878;8.618;2023-04-15T05:22:51;5.60;;;3.73;;
39778;SDS011;25454;49.878;8.618;2023-04-15T05:27:55;5.10;;;3.67;;
39778;SDS011;25454;49.878;8.618;2023-04-15T05:32:55;6.00;;;4.10;;
39778;SDS011;25454;49.878;8.618;2023-04-15T05:37:56;6.80;;;3.97;;
39778;SDS011;25454;49.878;8.618;2023-04-15T05:42:56;5.90;;;4.20;;
39778;SDS011;25454;49.878;8.618;2023-04-15T05:47:57;7.87;;;4.00;;
39778;SDS011;25454;49.878;8.618;2023-04-15T05:52:57;6.40;;;3.90;;
39778;SDS011;25454;49.878;8.618;2023-04-15T05:57:58;8.40;;;4.03;;
39778;SDS011;25454;49.878;8.618;2023-04-15T06:02:59;6.30;;;3.93;;
39778;SDS011;25454;49.878;8.618;2023-04-15T06:08:00;4.90;;;3.70;;
39778;SDS011;25454;49.878;8.618;2023-04-15T06:13:01;6.23;;;3.97;;
39778;SDS011;25454;49.878;8.618;2023-04-15T06:18:03;6.40;;;3.93;;
39778;SDS011;25454;49.878;8.618;2023-04-15T06:23:04;7.43;;;4.60;;
39778;SDS011;25454;49.878;8.618;2023-04-15T06:28:05;8.80;;;4.33;;
39778;SDS011;25454;49.878;8.618;2023-04-15T06:33:05;5.47;;;4.07;;
39778;SDS011;25454;49.878;8.618;2023-04-15T06:38:06;5.00;;;4.10;;
39778;SDS011;25454;49.878;8.618;2023-04-15T06:43:07;4.70;;;3.50;;
39778;SDS011;25454;49.878;8.618;2023-04-15T06:48:08;5.63;;;4.03;;
39778;SDS011;25454;49.878;8.618;2023-04-15T06:53:08;6.70;;;4.13;;
39778;SDS011;25454;49.878;8.618;2023-04-15T06:58:09;6.70;;;4.37;;
39778;SDS011;25454;49.878;8.618;2023-04-15T07:03:10;11.00;;;5.77;;
39778;SDS011;25454;49.878;8.618;2023-04-15T07:08:11;10.83;;;5.87;;
39778;SDS011;25454;49.878;8.618;2023-04-15T07:13:12;10.27;;;5.60;;
39778;SDS011;25454;49.878;8.618;2023-04-15T07:18:13;10.43;;;6.00;;
39778;SDS011;25454;49.878;8.618;2023-04-15T07:23:21;11.67;;;5.47;;
39778;SDS011;25454;49.878;8.618;2023-04-15T07:28:22;9.17;;;4.80;;
39778;SDS011;25454;49.878;8.618;2023-04-15T07:33:23;5.87;;;4.63;;
39778;SDS011;25454;49.878;8.618;2023-04-15T07:38:23;7.50;;;4.40;;
39778;SDS011;25454;49.878;8.618;2023-04-15T07:43:24;8.67;;;6.10;;
39778;SDS011;25454;49.878;8.618;2023-04-15T07:48:25;16.13;;;7.10;;
39778;SDS011;25454;49.878;8.618;2023-04-15T07:53:26;12.17;;;6.87;;
39778;SDS011;25454;49.878;8.618;2023-04-15T07:58:26;8.07;;;5.37;;
39778;SDS011;25454;49.878;8.618;2023-04-15T08:03:27;5.67;;;4.93;;
39778;SDS011;25454;49.878;8.618;2023-04-15T08:08:27;8.53;;;5.77;;
39778;SDS011;25454;49.878;8.618;2023-04-15T08:13:28;5.80;;;5.00;;
39778;SDS011;25454;49.878;8.618;2023-04-15T08:18:28;8.90;;;5.50;;
39778;SDS011;25454;49.878;8.618;2023-04-15T08:23:29;7.97;;;5.00;;
39778;SDS011;25454;49.878;8.618;2023-04-15T08:28:30;5.93;;;5.07;;
39778;SDS011;25454;49.878;8.618;2023-04-15T08:33:31;5.10;;;4.60;;
39778;SDS011;25454;49.878;8.618;2023-04-15T08:38:31;7.47;;;5.33;;
39778;SDS011;25454;49.878;8.618;2023-04-15T08:43:33;5.73;;;5.17;;
39778;SDS011;25454;49.878;8.618;2023-04-15T08:48:34;7.53;;;4.97;;
39778;SDS011;25454;49.878;8.618;2023-04-15T08:53:38;5.17;;;4.47;;
39778;SDS011;25454;49.878;8.618;2023-04-15T08:58:39;8.07;;;4.70;;
39778;SDS011;25454;49.878;8.618;2023-04-15T09:03:40;4.33;;;3.93;;
39778;SDS011;25454;49.878;8.618;2023-04-15T09:08:41;5.47;;;4.20;;
39778;SDS011;25454;49.878;8.618;2023-04-15T09:13:42;5.47;;;4.17;;
39778;SDS011;25454;49.878;8.618;2023-04-15T09:18:43;3.90;;;3.50;;
39778;SDS011;25454;49.878;8.618;2023-04-15T09:23:57;7.10;;;3.50;;
39778;SDS011;25454;49.878;8.618;2023-04-15T09:29:05;4.20;;;3.17;;
39778;SDS011;25454;49.878;8.618;2023-04-15T09:34:08;4.47;;;3.10;;
39778;SDS011;25454;49.878;8.618;2023-04-15T09:39:09;4.17;;;2.37;;
39778;SDS011;25454;49.878;8.618;2023-04-15T09:44:25;3.57;;;2.20;;
39778;SDS011;25454;49.878;8.618;2023-04-15T09:55:32;3.90;;;2.43;;
39778;SDS011;25454;49.878;8.618;2023-04-15T10:00:33;4.03;;;2.40;;
39778;SDS011;25454;49.878;8.618;2023-04-15T10:05:35;3.30;;;2.20;;
39778;SDS011;25454;49.878;8.618;2023-04-15T10:10:37;3.50;;;2.27;;
39778;SDS011;25454;49.878;8.618;2023-04-15T10:15:38;3.40;;;2.27;;
39778;SDS011;25454;49.878;8.618;2023-04-15T10:20:42;4.60;;;2.30;;
39778;SDS011;25454;49.878;8.618;2023-04-15T10:25:44;3.00;;;2.30;;
39778;SDS011;25454;49.878;8.618;2023-04-15T10:30:46;2.83;;;2.57;;
39778;SDS011;25454;49.878;8.618;2023-04-15T10:35:49;3.37;;;2.23;;
39778;SDS011;25454;49.878;8.618;2023-04-15T10:46:17;2.47;;;2.20;;
39778;SDS011;25454;49.878;8.618;2023-04-15T10:51:27;2.00;;;1.70;;
39778;SDS011;25454;49.878;8.618;2023-04-15T10:56:29;2.17;;;1.67;;
39778;SDS011;25454;49.878;8.618;2023-04-15T11:01:51;2.93;;;2.27;;
39778;SDS011;25454;49.878;8.618;2023-04-15T11:07:07;1.93;;;1.70;;
39778;SDS011;25454;49.878;8.618;2023-04-15T11:12:08;4.73;;;1.93;;
39778;SDS011;25454;49.878;8.618;2023-04-15T11:17:09;3.10;;;1.97;;
39778;SDS011;25454;49.878;8.618;2023-04-15T11:22:13;3.20;;;1.70;;
39778;SDS011;25454;49.878;8.618;2023-04-15T11:27:23;3.50;;;1.73;;
39778;SDS011;25454;49.878;8.618;2023-04-15T11:32:23;2.43;;;1.70;;
39778;SDS011;25454;49.878;8.618;2023-04-15T11:37:28;4.13;;;1.77;;
39778;SDS011;25454;49.878;8.618;2023-04-15T11:42:29;1.70;;;1.47;;
39778;SDS011;25454;49.878;8.618;2023-04-15T11:47:30;1.60;;;1.50;;
39778;SDS011;25454;49.878;8.618;2023-04-15T11:52:30;1.83;;;1.47;;
39778;SDS011;25454;49.878;8.618;2023-04-15T11:57:31;4.13;;;1.70;;
39778;SDS011;25454;49.878;8.618;2023-04-15T12:02:31;2.23;;;1.40;;
39778;SDS011;25454;49.878;8.618;2023-04-15T12:12:59;0.97;;;0.70;;
39778;SDS011;25454;49.878;8.618;2023-04-15T12:18:15;1.40;;;0.70;;
39778;SDS011;25454;49.878;8.618;2023-04-15T12:23:20;3.47;;;1.20;;
39778;SDS011;25454;49.878;8.618;2023-04-15T12:28:21;1.57;;;0.80;;
39778;SDS011;25454;49.878;8.618;2023-04-15T12:33:21;1.70;;;0.87;;
39778;SDS011;25454;49.878;8.618;2023-04-15T12:38:22;1.83;;;1.10;;
39778;SDS011;25454;49.878;8.618;2023-04-15T12:43:23;3.07;;;1.90;;
39778;SDS011;25454;49.878;8.618;2023-04-15T12:48:23;3.63;;;2.50;;
39778;SDS011;25454;49.878;8.618;2023-04-15T12:53:24;2.73;;;2.47;;
39778;SDS011;25454;49.878;8.618;2023-04-15T12:58:25;4.40;;;2.50;;
39778;SDS011;25454;49.878;8.618;2023-04-15T13:03:26;3.57;;;2.60;;
39778;SDS011;25454;49.878;8.618;2023-04-15T13:08:27;3.00;;;2.70;;
39778;SDS011;25454;49.878;8.618;2023-04-15T13:13:27;3.63;;;2.37;;
39778;SDS011;25454;49.878;8.618;2023-04-15T13:18:28;4.13;;;2.63;;
39778;SDS011;25454;49.878;8.618;2023-04-15T13:23:30;2.03;;;1.80;;
39778;SDS011;25454;49.878;8.618;2023-04-15T13:28:30;2.20;;;2.00;;
39778;SDS011;25454;49.878;8.618;2023-04-15T13:33:32;2.37;;;2.00;;
39778;SDS011;25454;49.878;8.618;2023-04-15T13:38:33;2.13;;;1.90;;
39778;SDS011;25454;49.878;8.618;2023-04-15T13:43:34;1.87;;;1.57;;
39778;SDS011;25454;49.878;8.618;2023-04-15T13:48:34;1.87;;;1.67;;
39778;SDS011;25454;49.878;8.618;2023-04-15T13:53:35;1.40;;;1.23;;
39778;SDS011;25454;49.878;8.618;2023-04-15T13:58:36;1.57;;;1.10;;
39778;SDS011;25454;49.878;8.618;2023-04-15T14:03:38;1.10;;;1.00;;
39778;SDS011;25454;49.878;8.618;2023-04-15T14:08:39;1.37;;;1.20;;
39778;SDS011;25454;49.878;8.618;2023-04-15T14:13:40;1.20;;;1.10;;
39778;SDS011;25454;49.878;8.618;2023-04-15T14:18:40;1.63;;;1.00;;
39778;SDS011;25454;49.878;8.618;2023-04-15T14:23:43;0.73;;;0.70;;
39778;SDS011;25454;49.878;8.618;2023-04-15T14:28:44;0.90;;;0.80;;
39778;SDS011;25454;49.878;8.618;2023-04-15T14:33:45;1.17;;;0.80;;
39778;SDS011;25454;49.878;8.618;2023-04-15T14:38:45;0.80;;;0.80;;
39778;SDS011;25454;49.878;8.618;2023-04-15T14:43:46;0.60;;;0.60;;
39778;SDS011;25454;49.878;8.618;2023-04-15T14:48:47;0.73;;;0.73;;
39778;SDS011;25454;49.878;8.618;2023-04-15T14:53:48;0.53;;;0.53;;
39778;SDS011;25454;49.878;8.618;2023-04-15T14:58:51;0.70;;;0.70;;
39778;SDS011;25454;49.878;8.618;2023-04-15T15:03:53;1.03;;;0.90;;
39778;SDS011;25454;49.878;8.618;2023-04-15T15:08:53;1.30;;;0.97;;
39778;SDS011;25454;49.878;8.618;2023-04-15T15:13:54;1.10;;;1.10;;
39778;SDS011;25454;49.878;8.618;2023-04-15T15:18:56;2.90;;;2.60;;
39778;SDS011;25454;49.878;8.618;2023-04-15T15:23:56;2.27;;;1.40;;
39778;SDS011;25454;49.878;8.618;2023-04-15T15:28:57;0.93;;;0.93;;
39778;SDS011;25454;49.878;8.618;2023-04-15T15:33:58;1.30;;;1.20;;
39778;SDS011;25454;49.878;8.618;2023-04-15T15:38:58;1.70;;;1.17;;
39778;SDS011;25454;49.878;8.618;2023-04-15T15:43:59;2.10;;;1.17;;
39778;SDS011;25454;49.878;8.618;2023-04-15T15:49:01;0.93;;;0.93;;
39778;SDS011;25454;49.878;8.618;2023-04-15T15:54:02;0.90;;;0.90;;
39778;SDS011;25454;49.878;8.618;2023-04-15T15:59:02;0.97;;;0.83;;
39778;SDS011;25454;49.878;8.618;2023-04-15T16:04:03;1.10;;;1.10;;
39778;SDS011;25454;49.878;8.618;2023-04-15T16:09:04;0.93;;;0.90;;
39778;SDS011;25454;49.878;8.618;2023-04-15T16:14:05;1.30;;;1.20;;
39778;SDS011;25454;49.878;8.618;2023-04-15T16:19:05;1.73;;;1.47;;
39778;SDS011;25454;49.878;8.618;2023-04-15T16:24:06;3.90;;;1.80;;
39778;SDS011;25454;49.878;8.618;2023-04-15T16:29:07;1.60;;;1.50;;
39778;SDS011;25454;49.878;8.618;2023-04-15T16:34:07;2.20;;;2.00;;
39778;SDS011;25454;49.878;8.618;2023-04-15T16:39:08;2.00;;;1.90;;
39778;SDS011;25454;49.878;8.618;2023-04-15T16:44:09;2.83;;;2.40;;
39778;SDS011;25454;49.878;8.618;2023-04-15T16:49:10;2.53;;;2.23;;
39778;SDS011;25454;49.878;8.618;2023-04-15T16:54:10;3.03;;;2.20;;
39778;SDS011;25454;49.878;8.618;2023-04-15T16:59:11;2.50;;;2.27;;
39778;SDS011;25454;49.878;8.618;2023-04-15T17:04:11;3.20;;;2.73;;
39778;SDS011;25454;49.878;8.618;2023-04-15T17:09:12;2.80;;;2.60;;
39778;SDS011;25454;49.878;8.618;2023-04-15T17:14:13;3.30;;;2.73;;
39778;SDS011;25454;49.878;8.618;2023-04-15T17:19:13;3.70;;;2.93;;
39778;SDS011;25454;49.878;8.618;2023-04-15T17:24:14;3.37;;;3.07;;
39778;SDS011;25454;49.878;8.618;2023-04-15T17:29:27;4.63;;;3.27;;
39778;SDS011;25454;49.878;8.618;2023-04-15T17:34:27;3.00;;;2.67;;
39778;SDS011;25454;49.878;8.618;2023-04-15T17:39:28;3.70;;;3.30;;
39778;SDS011;25454;49.878;8.618;2023-04-15T17:44:29;5.10;;;4.60;;
39778;SDS011;25454;49.878;8.618;2023-04-15T17:49:29;3.97;;;3.53;;
39778;SDS011;25454;49.878;8.618;2023-04-15T17:54:33;4.20;;;3.47;;
39778;SDS011;25454;49.878;8.618;2023-04-15T17:59:34;3.73;;;3.27;;
39778;SDS011;25454;49.878;8.618;2023-04-15T18:04:35;3.57;;;3.27;;
39778;SDS011;25454;49.878;8.618;2023-04-15T18:09:35;4.00;;;3.60;;
39778;SDS011;25454;49.878;8.618;2023-04-15T18:14:36;4.10;;;3.53;;
39778;SDS011;25454;49.878;8.618;2023-04-15T18:19:36;4.40;;;3.77;;
39778;SDS011;25454;49.878;8.618;2023-04-15T18:24:37;4.17;;;3.77;;
39778;SDS011;25454;49.878;8.618;2023-04-15T18:29:38;4.23;;;3.83;;
39778;SDS011;25454;49.878;8.618;2023-04-15T18:34:38;4.30;;;3.90;;
39778;SDS011;25454;49.878;8.618;2023-04-15T18:39:39;4.33;;;3.93;;
39778;SDS011;25454;49.878;8.618;2023-04-15T18:44:39;4.63;;;3.97;;
39778;SDS011;25454;49.878;8.618;2023-04-15T18:49:40;4.63;;;4.03;;
39778;SDS011;25454;49.878;8.618;2023-04-15T18:54:41;4.80;;;4.40;;
39778;SDS011;25454;49.878;8.618;2023-04-15T18:59:41;4.57;;;4.17;;
39778;SDS011;25454;49.878;8.618;2023-04-15T19:04:42;4.73;;;4.13;;
39778;SDS011;25454;49.878;8.618;2023-04-15T19:09:42;4.77;;;4.13;;
39778;SDS011;25454;49.878;8.618;2023-04-15T19:14:43;4.83;;;4.43;;
39778;SDS011;25454;49.878;8.618;2023-04-15T19:19:43;5.07;;;4.57;;
39778;SDS011;25454;49.878;8.618;2023-04-15T19:24:44;4.77;;;4.37;;
39778;SDS011;25454;49.878;8.618;2023-04-15T19:29:45;5.40;;;4.90;;
39778;SDS011;25454;49.878;8.618;2023-04-15T19:34:46;4.90;;;4.50;;
39778;SDS011;25454;49.878;8.618;2023-04-15T19:39:47;5.20;;;4.50;;
39778;SDS011;25454;49.878;8.618;2023-04-15T19:44:48;5.07;;;4.50;;
39778;SDS011;25454;49.878;8.618;2023-04-15T19:49:48;4.20;;;3.90;;
39778;SDS011;25454;49.878;8.618;2023-04-15T19:54:50;5.00;;;4.50;;
39778;SDS011;25454;49.878;8.618;2023-04-15T19:59:50;4.87;;;4.37;;
39778;SDS011;25454;49.878;8.618;2023-04-15T20:04:51;5.03;;;4.53;;
39778;SDS011;25454;49.878;8.618;2023-04-15T20:09:51;4.97;;;4.43;;
39778;SDS011;25454;49.878;8.618;2023-04-15T20:14:52;4.67;;;4.17;;
39778;SDS011;25454;49.878;8.618;2023-04-15T20:19:53;4.63;;;4.23;;
39778;SDS011;25454;49.878;8.618;2023-04-15T20:24:53;5.20;;;4.70;;
39778;SDS011;25454;49.878;8.618;2023-04-15T20:29:54;4.33;;;3.93;;
39778;SDS011;25454;49.878;8.618;2023-04-15T20:34:54;4.47;;;4.03;;
39778;SDS011;25454;49.878;8.618;2023-04-15T20:39:55;4.53;;;4.13;;
39778;SDS011;25454;49.878;8.618;2023-04-15T20:44:55;4.30;;;3.90;;
39778;SDS011;25454;49.878;8.618;2023-04-15T20:49:56;4.50;;;4.10;;
39778;SDS011;25454;49.878;8.618;2023-04-15T20:54:56;4.20;;;3.80;;
39778;SDS011;25454;49.878;8.618;2023-04-15T20:59:57;5.43;;;4.40;;
39778;SDS011;25454;49.878;8.618;2023-04-15T21:04:58;3.87;;;3.53;;
39778;SDS011;25454;49.878;8.618;2023-04-15T21:09:58;3.77;;;3.43;;
39778;SDS011;25454;49.878;8.618;2023-04-15T21:14:59;4.20;;;3.80;;
39778;SDS011;25454;49.878;8.618;2023-04-15T21:20:00;3.87;;;3.47;;
39778;SDS011;25454;49.878;8.618;2023-04-15T21:25:01;3.70;;;3.40;;
39778;SDS011;25454;49.878;8.618;2023-04-15T21:30:02;3.80;;;3.40;;
39778;SDS011;25454;49.878;8.618;2023-04-15T21:35:03;3.40;;;3.10;;
39778;SDS011;25454;49.878;8.618;2023-04-15T21:40:04;3.47;;;3.17;;
39778;SDS011;25454;49.878;8.618;2023-04-15T21:45:05;3.00;;;2.70;;
39778;SDS011;25454;49.878;8.618;2023-04-15T21:50:06;3.27;;;2.93;;
39778;SDS011;25454;49.878;8.618;2023-04-15T21:55:07;3.37;;;2.80;;
39778;SDS011;25454;49.878;8.618;2023-04-15T22:00:08;3.23;;;2.77;;
39778;SDS011;25454;49.878;8.618;2023-04-15T22:05:10;3.73;;;3.00;;
39778;SDS011;25454;49.878;8.618;2023-04-15T22:10:10;3.77;;;3.17;;
39778;SDS011;25454;49.878;8.618;2023-04-15T22:15:11;3.40;;;3.10;;
39778;SDS011;25454;49.878;8.618;2023-04-15T22:20:11;4.63;;;3.13;;
39778;SDS011;25454;49.878;8.618;2023-04-15T22:25:12;3.37;;;3.07;;
39778;SDS011;25454;49.878;8.618;2023-04-15T22:30:13;3.47;;;3.17;;
39778;SDS011;25454;49.878;8.618;2023-04-15T22:35:14;4.37;;;3.90;;
39778;SDS011;25454;49.878;8.618;2023-04-15T22:40:17;4.27;;;3.87;;
39778;SDS011;25454;49.878;8.618;2023-04-15T22:45:18;5.87;;;3.60;;
39778;SDS011;25454;49.878;8.618;2023-04-15T22:50:19;4.27;;;3.87;;
39778;SDS011;25454;49.878;8.618;2023-04-15T22:55:20;4.07;;;3.67;;
39778;SDS011;25454;49.878;8.618;2023-04-15T23:00:20;4.73;;;3.70;;
39778;SDS011;25454;49.878;8.618;2023-04-15T23:05:22;4.13;;;3.73;;
39778;SDS011;25454;49.878;8.618;2023-04-15T23:10:22;4.83;;;3.70;;
39778;SDS011;25454;49.878;8.618;2023-04-15T23:15:23;4.20;;;3.70;;
39778;SDS011;25454;49.878;8.618;2023-04-15T23:20:24;4.83;;;3.90;;
39778;SDS011;25454;49.878;8.618;2023-04-15T23:25:25;4.93;;;4.37;;
39778;SDS011;25454;49.878;8.618;2023-04-15T23:30:26;5.70;;;4.33;;
39778;SDS011;25454;49.878;8.618;2023-04-15T23:35:26;6.80;;;4.40;;
39778;SDS011;25454;49.878;8.618;2023-04-15T23:40:30;5.23;;;4.73;;
39778;SDS011;25454;49.878;8.618;2023-04-15T23:45:30;6.20;;;4.90;;
39778;SDS011;25454;49.878;8.618;2023-04-15T23:50:31;5.73;;;4.83;;
39778;SDS011;25454;49.878;8.618;2023-04-15T23:55:34;6.80;;;5.50;;
